Time;durP1;ratioP1;P1;durP2;ratioP2;P2;SDS_P1;SDS_P2;PMS_P1;PMS_P2;Temp;Humidity;BMP_temperature;BMP_pressure;BME280_temperature;BME280_humidity;BME280_pressure;Samples;Min_cycle;Max_cycle;Signal;HPM_P1;HPM_P2
2022/09/26 00:02:38;;;;;;;22.47;18.07;;;14.40;99.90;;;;;;6252574;28;20471;-67
2022/09/26 00:05:42;;;;;;;23.80;21.33;;;14.40;99.90;;;;;;6252826;28;21016;-66
2022/09/26 00:08:46;;;;;;;24.17;20.13;;;14.50;99.90;;;;;;6227050;28;20494;-66
2022/09/26 00:11:49;;;;;;;29.97;23.20;;;14.40;99.90;;;;;;6248615;28;20490;-66
2022/09/26 00:14:53;;;;;;;41.77;29.70;;;14.40;99.90;;;;;;6251120;28;21154;-66
2022/09/26 00:17:56;;;;;;;46.50;36.10;;;14.40;99.90;;;;;;6251124;28;20463;-67
2022/09/26 00:21:04;;;;;;;30.60;24.17;;;14.30;99.90;;;;;;6250890;28;20482;-66
2022/09/26 00:24:08;;;;;;;24.30;21.47;;;14.30;99.90;;;;;;6251944;28;20471;-67
2022/09/26 00:27:11;;;;;;;36.93;24.00;;;14.30;99.90;;;;;;6251234;28;20568;-67
2022/09/26 00:30:14;;;;;;;25.17;20.70;;;14.30;99.90;;;;;;6252309;28;20483;-67
2022/09/26 00:33:17;;;;;;;34.83;22.40;;;14.30;99.90;;;;;;6251847;28;20533;-67
2022/09/26 00:36:22;;;;;;;56.43;23.90;;;14.20;99.90;;;;;;6252061;28;20997;-67
2022/09/26 00:39:39;;;;;;;73.50;23.80;;;14.20;99.90;;;;;;6241150;28;20547;-67
2022/09/26 00:42:42;;;;;;;32.20;21.50;;;14.20;99.90;;;;;;6251138;28;21189;-67
2022/09/26 00:45:45;;;;;;;39.40;20.83;;;14.10;99.90;;;;;;6251731;28;20483;-67
2022/09/26 00:48:54;;;;;;;20.63;18.53;;;14.20;99.90;;;;;;6249199;28;20564;-67
2022/09/26 00:52:02;;;;;;;22.60;20.30;;;14.20;99.90;;;;;;6251578;28;20529;-67
2022/09/26 00:55:10;;;;;;;24.93;20.00;;;14.20;99.90;;;;;;6252099;28;20435;-67
2022/09/26 00:58:18;;;;;;;35.83;20.97;;;14.30;99.90;;;;;;6249623;28;21067;-67
2022/09/26 01:01:21;;;;;;;39.47;20.47;;;14.20;99.90;;;;;;6251562;28;20468;-67
2022/09/26 01:04:27;;;;;;;21.47;18.67;;;14.20;99.90;;;;;;6250493;28;20537;-67
2022/09/26 01:07:34;;;;;;;25.37;18.93;;;14.20;99.90;;;;;;6249075;28;20963;-67
2022/09/26 01:10:38;;;;;;;20.43;17.63;;;14.30;99.90;;;;;;6251028;28;20811;-68
2022/09/26 01:13:43;;;;;;;21.63;19.30;;;14.30;99.90;;;;;;6251354;28;20467;-67
2022/09/26 01:16:49;;;;;;;22.00;19.53;;;14.20;99.90;;;;;;6251362;28;20917;-67
2022/09/26 01:20:05;;;;;;;21.73;19.43;;;14.20;99.90;;;;;;6251446;28;20482;-67
2022/09/26 01:24:01;;;;;;;22.67;20.37;;;14.20;99.90;;;;;;6251706;28;20479;-67
2022/09/26 01:27:40;;;;;;;20.37;18.27;;;14.20;99.90;;;;;;6251173;28;20470;-67
2022/09/26 01:30:48;;;;;;;23.07;20.10;;;14.10;99.90;;;;;;6248314;28;20487;-67
2022/09/26 01:34:00;;;;;;;20.80;18.43;;;14.00;99.90;;;;;;6251175;28;20455;-67
2022/09/26 01:37:09;;;;;;;21.13;18.93;;;13.90;99.90;;;;;;6251022;28;20431;-68
2022/09/26 01:40:21;;;;;;;20.20;18.20;;;13.90;99.90;;;;;;6246890;28;20471;-67
2022/09/26 01:43:33;;;;;;;20.50;18.30;;;13.90;99.90;;;;;;6251093;28;20557;-67
2022/09/26 01:46:42;;;;;;;20.30;18.00;;;13.90;99.90;;;;;;6249903;28;20479;-67
2022/09/26 01:49:53;;;;;;;20.43;18.37;;;13.80;99.90;;;;;;6249839;28;20483;-67
2022/09/26 01:53:04;;;;;;;19.40;16.83;;;13.70;99.90;;;;;;6249869;28;20486;-67
2022/09/26 01:56:13;;;;;;;17.60;15.90;;;13.80;99.90;;;;;;6250021;28;20471;-67
2022/09/26 01:59:22;;;;;;;23.07;20.53;;;13.80;99.90;;;;;;6250126;28;20815;-67
2022/09/26 02:02:31;;;;;;;21.13;18.93;;;13.60;99.90;;;;;;6250316;28;20491;-67
2022/09/26 02:05:39;;;;;;;21.07;19.00;;;13.60;99.90;;;;;;6249724;28;21214;-67
2022/09/26 02:08:48;;;;;;;24.90;19.10;;;13.60;99.90;;;;;;6248989;28;20529;-66
2022/09/26 02:11:53;;;;;;;23.30;20.90;;;13.50;99.90;;;;;;6248296;28;20483;-65
2022/09/26 02:15:00;;;;;;;23.27;19.07;;;13.60;99.90;;;;;;6248200;28;20569;-65
2022/09/26 02:18:14;;;;;;;23.30;18.80;;;13.50;99.90;;;;;;6245921;28;20487;-66
2022/09/26 02:21:20;;;;;;;23.00;20.60;;;13.60;99.90;;;;;;6245074;28;20572;-67
2022/09/26 02:24:24;;;;;;;21.03;18.93;;;13.70;99.90;;;;;;6250517;28;20471;-67
2022/09/26 02:27:27;;;;;;;21.00;18.80;;;13.70;99.90;;;;;;6250394;28;20482;-67
2022/09/26 02:30:30;;;;;;;21.17;18.87;;;13.60;99.90;;;;;;6250035;28;20537;-67
2022/09/26 02:33:35;;;;;;;24.43;21.70;;;13.70;99.90;;;;;;6249960;28;20487;-67
2022/09/26 02:36:38;;;;;;;23.23;20.67;;;13.70;99.90;;;;;;6249936;28;20475;-67
2022/09/26 02:39:43;;;;;;;22.10;19.67;;;13.70;99.90;;;;;;6250135;28;20486;-67
2022/09/26 02:42:56;;;;;;;21.10;17.77;;;13.70;99.90;;;;;;6249755;28;20479;-68
2022/09/26 02:46:08;;;;;;;20.63;18.43;;;13.80;99.90;;;;;;6246051;28;20455;-68
2022/09/26 02:49:29;;;;;;;20.20;18.03;;;13.80;99.90;;;;;;6250120;28;20463;-67
2022/09/26 02:52:38;;;;;;;19.97;17.90;;;13.70;99.90;;;;;;6249951;28;20486;-68
2022/09/26 02:55:50;;;;;;;21.13;18.87;;;13.90;99.90;;;;;;6248156;28;20475;-68
2022/09/26 02:59:00;;;;;;;20.17;18.17;;;13.90;99.90;;;;;;6248137;28;20963;-67
2022/09/26 03:02:10;;;;;;;22.80;19.87;;;13.90;99.90;;;;;;6247930;28;20475;-68
2022/09/26 03:05:19;;;;;;;20.57;18.30;;;13.80;99.90;;;;;;6248324;28;20490;-68
2022/09/26 03:08:25;;;;;;;20.30;18.17;;;13.70;99.90;;;;;;6248432;28;20491;-68
2022/09/26 03:11:30;;;;;;;20.57;18.37;;;13.70;99.90;;;;;;6249606;28;20522;-67
2022/09/26 03:14:36;;;;;;;22.03;18.80;;;13.70;99.90;;;;;;6248441;28;20959;-67
2022/09/26 03:17:43;;;;;;;23.40;20.90;;;13.70;99.90;;;;;;6248169;28;20488;-67
2022/09/26 03:20:48;;;;;;;22.20;20.00;;;13.60;99.90;;;;;;6248026;28;21155;-67
2022/09/26 03:23:51;;;;;;;23.37;19.73;;;13.50;99.90;;;;;;6247770;28;20479;-68
2022/09/26 03:26:56;;;;;;;32.50;21.70;;;13.50;99.90;;;;;;6250068;28;20525;-68
2022/09/26 03:29:59;;;;;;;23.00;20.50;;;13.50;99.90;;;;;;6252906;28;20818;-68
2022/09/26 03:33:03;;;;;;;32.00;20.93;;;13.50;99.90;;;;;;6252462;28;20483;-67
2022/09/26 03:36:09;;;;;;;21.97;19.57;;;13.50;99.90;;;;;;6252726;28;20474;-68
2022/09/26 03:39:12;;;;;;;22.00;19.20;;;13.50;99.90;;;;;;6252411;28;20486;-69
2022/09/26 03:42:15;;;;;;;38.00;20.37;;;13.50;99.90;;;;;;6252528;28;20490;-69
2022/09/26 03:45:19;;;;;;;30.10;20.23;;;13.50;99.90;;;;;;6252839;28;20482;-69
2022/09/26 03:48:23;;;;;;;34.30;20.93;;;13.50;99.90;;;;;;6253574;28;20493;-69
2022/09/26 03:51:27;;;;;;;42.20;20.03;;;13.30;99.90;;;;;;6245217;28;20490;-68
2022/09/26 03:54:30;;;;;;;37.70;20.17;;;13.30;99.90;;;;;;6253474;28;21009;-68
2022/09/26 03:57:33;;;;;;;25.53;19.20;;;13.20;99.90;;;;;;6253868;28;20466;-68
2022/09/26 04:00:38;;;;;;;36.17;19.20;;;13.10;99.90;;;;;;6253208;28;20817;-68
2022/09/26 04:03:43;;;;;;;22.80;18.37;;;13.10;99.90;;;;;;6254020;28;20474;-68
2022/09/26 04:06:53;;;;;;;19.87;17.43;;;13.10;99.90;;;;;;6259927;28;20482;-67
2022/09/26 04:09:56;;;;;;;21.73;18.40;;;13.20;99.90;;;;;;6278307;28;20930;-67
2022/09/26 04:12:59;;;;;;;30.40;19.80;;;13.20;99.90;;;;;;6277769;28;20528;-67
2022/09/26 04:16:04;;;;;;;21.47;17.57;;;13.20;99.90;;;;;;6277859;28;20759;-67
2022/09/26 04:19:07;;;;;;;17.87;15.93;;;13.20;99.90;;;;;;6277577;28;20735;-67
2022/09/26 04:22:12;;;;;;;19.00;16.90;;;13.30;99.90;;;;;;6278248;28;20903;-67
2022/09/26 04:25:15;;;;;;;18.07;16.17;;;13.40;99.90;;;;;;6277474;28;20581;-67
2022/09/26 04:28:18;;;;;;;19.03;16.80;;;13.40;99.90;;;;;;6277341;28;20489;-67
2022/09/26 04:31:22;;;;;;;18.30;15.90;;;13.40;99.90;;;;;;6277514;28;20472;-67
2022/09/26 04:34:25;;;;;;;28.37;18.50;;;13.50;99.90;;;;;;6277929;28;20468;-67
2022/09/26 04:37:32;;;;;;;19.67;16.63;;;13.50;99.90;;;;;;6277223;28;20458;-67
2022/09/26 04:40:35;;;;;;;19.63;16.80;;;13.60;99.90;;;;;;6276261;28;20480;-67
2022/09/26 04:43:44;;;;;;;23.37;19.07;;;13.60;99.90;;;;;;6275666;28;20478;-67
2022/09/26 04:46:47;;;;;;;18.13;16.20;;;13.60;99.90;;;;;;6275581;28;20852;-67
2022/09/26 04:49:51;;;;;;;17.30;15.40;;;13.60;99.90;;;;;;6275718;28;20485;-67
2022/09/26 04:52:55;;;;;;;21.43;14.43;;;13.60;99.90;;;;;;6271227;28;20482;-68
2022/09/26 04:55:58;;;;;;;20.57;14.80;;;13.60;99.90;;;;;;6276489;28;20482;-67
2022/09/26 04:59:01;;;;;;;19.13;14.77;;;13.60;99.90;;;;;;6277185;28;20512;-67
2022/09/26 05:02:05;;;;;;;22.20;15.63;;;13.60;99.90;;;;;;6276237;28;20474;-67
2022/09/26 05:05:09;;;;;;;14.93;13.37;;;13.60;99.90;;;;;;6275645;28;20577;-67
2022/09/26 05:08:13;;;;;;;18.80;15.43;;;13.60;99.90;;;;;;6275773;28;20478;-67
2022/09/26 05:11:18;;;;;;;18.07;14.07;;;13.60;99.90;;;;;;6288996;28;20802;-68
2022/09/26 05:14:21;;;;;;;14.77;13.17;;;13.60;99.90;;;;;;6277077;28;20524;-67
2022/09/26 05:17:25;;;;;;;17.17;13.60;;;13.50;99.90;;;;;;6274860;28;20989;-67
2022/09/26 05:20:30;;;;;;;14.67;13.17;;;13.60;99.90;;;;;;6275098;28;20474;-67
2022/09/26 05:26:56;;;;;;;12.00;10.80;;;13.60;99.90;;;;;;6274787;28;20471;-67
2022/09/26 05:29:59;;;;;;;13.53;12.23;;;13.70;99.90;;;;;;6274820;28;20497;-67
2022/09/26 05:33:03;;;;;;;13.73;12.33;;;13.80;99.90;;;;;;6275925;28;20965;-67
2022/09/26 05:36:07;;;;;;;11.57;10.47;;;13.80;99.90;;;;;;6275443;28;20475;-67
2022/09/26 05:42:28;;;;;;;12.00;10.90;;;13.90;99.90;;;;;;6274836;28;20471;-67
2022/09/26 05:45:32;;;;;;;9.60;8.80;;;13.90;99.90;;;;;;6275981;28;20797;-67
2022/09/26 05:48:38;;;;;;;10.03;9.13;;;14.00;99.90;;;;;;6274972;28;20470;-67
2022/09/26 05:51:42;;;;;;;11.63;10.30;;;14.10;99.90;;;;;;6275385;28;20474;-67
2022/09/26 05:54:46;;;;;;;10.87;9.90;;;14.10;99.90;;;;;;6275393;28;20474;-67
2022/09/26 05:57:56;;;;;;;12.27;11.10;;;14.20;99.90;;;;;;6275496;28;20848;-67
2022/09/26 06:01:04;;;;;;;11.80;10.70;;;14.30;99.90;;;;;;6275488;28;20749;-68
2022/09/26 06:04:07;;;;;;;12.53;11.23;;;14.50;99.90;;;;;;6275854;28;20727;-67
2022/09/26 06:07:11;;;;;;;13.70;12.33;;;14.70;99.90;;;;;;6275704;28;20450;-68
2022/09/26 06:10:16;;;;;;;13.77;12.23;;;14.60;99.90;;;;;;6275159;28;20921;-68
2022/09/26 06:13:20;;;;;;;12.73;11.43;;;14.60;99.90;;;;;;6274991;28;20486;-68
2022/09/26 06:16:23;;;;;;;11.83;10.83;;;14.50;99.90;;;;;;6275030;28;20489;-67
2022/09/26 06:19:26;;;;;;;13.97;12.17;;;14.50;99.90;;;;;;6275643;28;20468;-67
2022/09/26 06:22:32;;;;;;;13.57;12.27;;;14.60;99.90;;;;;;6274829;28;20824;-67
2022/09/26 06:25:37;;;;;;;13.00;11.70;;;14.60;99.90;;;;;;6274893;28;20567;-67
2022/09/26 06:28:40;;;;;;;13.73;12.50;;;14.60;99.90;;;;;;6275008;28;20505;-67
2022/09/26 06:31:43;;;;;;;16.10;14.60;;;14.70;99.90;;;;;;6274338;28;20555;-67
2022/09/26 06:34:47;;;;;;;16.37;14.70;;;14.70;99.90;;;;;;6275003;28;20485;-67
2022/09/26 06:37:50;;;;;;;13.70;12.30;;;14.70;99.90;;;;;;6275056;28;20839;-67
2022/09/26 06:40:55;;;;;;;13.83;12.53;;;14.90;99.90;;;;;;6274724;28;20500;-67
2022/09/26 06:43:58;;;;;;;16.47;14.97;;;14.90;99.90;;;;;;6274708;28;20892;-67
2022/09/26 06:47:01;;;;;;;12.80;11.60;;;15.10;99.90;;;;;;6275157;28;20474;-67
2022/09/26 06:50:05;;;;;;;13.73;12.40;;;15.50;99.90;;;;;;6274724;28;20818;-67
2022/09/26 06:53:09;;;;;;;13.13;11.93;;;16.00;99.90;;;;;;6274445;28;20513;-67
2022/09/26 06:56:13;;;;;;;11.93;10.83;;;16.50;99.90;;;;;;6274710;28;20541;-68
2022/09/26 06:59:16;;;;;;;11.90;10.80;;;17.00;99.90;;;;;;6275183;28;20466;-68
2022/09/26 07:02:19;;;;;;;12.37;11.27;;;17.50;99.90;;;;;;6268059;28;20470;-67
2022/09/26 07:05:24;;;;;;;10.93;10.03;;;18.20;99.90;;;;;;6279666;28;20469;-67
2022/09/26 07:08:27;;;;;;;10.77;9.87;;;18.50;99.90;;;;;;6279388;28;20470;-66
2022/09/26 07:11:51;;;;;;;9.90;9.10;;;18.60;99.90;;;;;;6279026;28;20555;-67
2022/09/26 07:15:17;;;;;;;10.50;9.60;;;18.70;99.90;;;;;;6278943;28;20255;-67
2022/09/26 07:18:20;;;;;;;12.23;10.60;;;19.00;99.90;;;;;;6279268;28;20285;-67
2022/09/26 07:21:23;;;;;;;11.27;10.37;;;19.30;99.90;;;;;;6268389;28;20566;-65
2022/09/26 07:24:26;;;;;;;12.37;11.37;;;19.30;99.90;;;;;;6254659;28;20748;-65
2022/09/26 07:27:31;;;;;;;13.07;11.43;;;19.10;99.90;;;;;;6254413;28;20228;-65
2022/09/26 07:30:34;;;;;;;11.53;10.50;;;18.80;99.90;;;;;;6254253;28;20224;-66
2022/09/26 07:33:38;;;;;;;12.73;11.67;;;18.60;99.90;;;;;;6253647;28;20224;-66
2022/09/26 07:36:41;;;;;;;12.40;11.40;;;18.30;99.90;;;;;;6253818;28;20239;-67
2022/09/26 07:39:45;;;;;;;13.17;11.87;;;18.10;99.90;;;;;;6254276;28;20470;-67
2022/09/26 07:42:59;;;;;;;13.10;11.80;;;17.90;99.90;;;;;;6254484;28;20475;-67
2022/09/26 07:53:02;;;;;;;13.23;12.00;;;17.50;99.90;;;;;;6254599;28;20479;-67
2022/09/26 07:56:06;;;;;;;12.60;11.50;;;17.30;99.90;;;;;;6254205;28;20985;-67
2022/09/26 07:59:11;;;;;;;12.67;11.43;;;17.20;99.90;;;;;;6254268;28;20482;-67
2022/09/26 08:02:21;;;;;;;14.00;12.80;;;17.10;99.90;;;;;;6253872;28;20482;-68
2022/09/26 08:05:25;;;;;;;13.63;12.33;;;17.00;99.90;;;;;;6249426;28;20885;-66
2022/09/26 08:08:29;;;;;;;13.20;11.90;;;17.00;99.90;;;;;;6253900;28;20483;-67
2022/09/26 08:11:32;;;;;;;13.93;12.57;;;16.80;99.90;;;;;;6252390;28;20483;-66
2022/09/26 08:14:36;;;;;;;11.70;10.70;;;17.00;99.90;;;;;;6253671;28;20475;-66
2022/09/26 08:17:40;;;;;;;13.83;12.30;;;17.40;99.90;;;;;;6253120;28;20467;-66
2022/09/26 08:20:46;;;;;;;12.43;11.33;;;17.30;99.90;;;;;;6253450;28;20474;-68
2022/09/26 08:23:49;;;;;;;13.67;12.47;;;17.30;99.90;;;;;;6253056;28;20467;-67
2022/09/26 08:26:54;;;;;;;14.07;12.77;;;17.20;99.90;;;;;;6252725;28;20479;-68
2022/09/26 08:29:59;;;;;;;12.93;11.43;;;17.20;99.90;;;;;;6252505;28;20934;-67
2022/09/26 08:33:02;;;;;;;13.20;11.97;;;17.20;99.90;;;;;;6252122;28;20470;-67
2022/09/26 08:36:06;;;;;;;12.30;11.20;;;17.20;99.90;;;;;;6252023;28;20475;-67
2022/09/26 08:39:10;;;;;;;22.83;13.23;;;17.20;99.90;;;;;;6251935;28;20536;-68
2022/09/26 08:42:32;;;;;;;15.10;13.60;;;17.10;99.90;;;;;;6252751;28;20839;-68
2022/09/26 08:49:24;;;;;;;14.47;13.00;;;16.90;99.90;;;;;;6255341;28;20461;-68
2022/09/26 08:52:32;;;;;;;14.90;13.40;;;16.90;99.90;;;;;;6253253;28;20971;-67
2022/09/26 08:55:41;;;;;;;15.30;13.70;;;16.90;99.90;;;;;;6252600;28;20475;-68
2022/09/26 08:58:50;;;;;;;14.83;13.53;;;17.00;99.90;;;;;;6252708;28;20486;-68
2022/09/26 09:02:01;;;;;;;14.70;12.03;;;17.10;99.90;;;;;;6252096;28;20533;-66
2022/09/26 09:05:11;;;;;;;15.47;13.97;;;17.20;99.90;;;;;;6252577;28;20471;-66
2022/09/26 09:08:20;;;;;;;15.70;14.13;;;17.20;99.90;;;;;;6252175;28;21002;-66
2022/09/26 09:11:43;;;;;;;13.93;12.63;;;17.30;99.90;;;;;;6247315;28;20491;-66
2022/09/26 09:15:10;;;;;;;14.07;12.63;;;17.30;99.90;;;;;;6251828;28;20463;-66
2022/09/26 09:18:39;;;;;;;14.87;13.47;;;17.20;99.90;;;;;;6250629;28;20482;-66
2022/09/26 09:22:03;;;;;;;14.50;13.20;;;17.20;99.90;;;;;;6250824;28;20471;-67
2022/09/26 09:25:15;;;;;;;15.17;13.73;;;17.30;99.90;;;;;;6247718;28;20466;-66
2022/09/26 09:28:35;;;;;;;12.83;11.53;;;17.40;99.90;;;;;;6251312;28;20816;-66
2022/09/26 09:31:41;;;;;;;14.50;13.27;;;17.60;99.90;;;;;;6251064;28;20482;-66
2022/09/26 09:34:49;;;;;;;13.93;12.53;;;17.70;99.90;;;;;;6250859;28;20490;-67
2022/09/26 09:37:56;;;;;;;12.90;11.80;;;17.80;99.90;;;;;;6248596;28;20467;-66
2022/09/26 09:41:04;;;;;;;15.00;12.47;;;18.20;99.90;;;;;;6248930;28;20483;-65
2022/09/26 09:44:25;;;;;;;13.33;11.93;;;18.70;99.90;;;;;;6250687;28;20260;-66
2022/09/26 09:47:29;;;;;;;12.67;11.43;;;19.00;99.90;;;;;;6250089;28;20232;-65
2022/09/26 09:50:44;;;;;;;13.30;12.10;;;19.10;99.90;;;;;;6247352;28;20660;-66
2022/09/26 09:54:05;;;;;;;13.80;11.57;;;19.00;99.90;;;;;;6250095;28;20225;-65
2022/09/26 09:57:24;;;;;;;12.60;11.40;;;18.90;99.90;;;;;;6249539;28;20246;-66
2022/09/26 10:00:28;;;;;;;13.27;12.17;;;18.80;99.90;;;;;;6247745;28;20232;-67
2022/09/26 10:03:38;;;;;;;11.67;10.57;;;18.80;99.90;;;;;;6246171;28;20232;-67
2022/09/26 10:06:43;;;;;;;11.93;10.73;;;18.80;99.90;;;;;;6250041;28;20251;-67
2022/09/26 10:09:50;;;;;;;11.00;10.00;;;18.80;99.90;;;;;;6250130;28;20279;-67
2022/09/26 10:12:56;;;;;;;12.23;11.23;;;19.20;99.90;;;;;;6249988;28;20237;-67
2022/09/26 10:16:02;;;;;;;9.57;8.77;;;20.10;99.90;;;;;;6250350;28;20561;-67
2022/09/26 10:19:08;;;;;;;11.60;10.40;;;21.50;99.90;;;;;;6230351;28;20617;-67
2022/09/26 10:22:23;;;;;;;11.07;10.17;;;24.00;98.30;;;;;;6225838;28;20222;-67
2022/09/26 10:25:26;;;;;;;9.63;8.93;;;25.20;94.20;;;;;;6226026;28;20469;-67
2022/09/26 10:28:36;;;;;;;9.40;8.30;;;26.70;90.70;;;;;;6225609;28;20228;-67
2022/09/26 10:31:41;;;;;;;7.83;7.23;;;30.60;77.50;;;;;;6233917;28;20229;-68
2022/09/26 10:35:04;;;;;;;8.75;8.05;;;33.30;56.70;;;;;;6239408;28;20239;-68
2022/09/26 10:38:19;;;;;;;6.43;6.00;;;33.70;51.30;;;;;;6252478;28;20895;-68
2022/09/26 10:41:23;;;;;;;6.80;6.15;;;32.40;49.70;;;;;;6249942;28;20220;-69
2022/09/26 10:44:28;;;;;;;8.23;7.53;;;31.30;51.10;;;;;;6249205;28;20242;-67
2022/09/26 10:47:33;;;;;;;8.47;7.70;;;29.70;52.80;;;;;;6249431;28;20652;-67
2022/09/26 10:50:38;;;;;;;6.60;6.00;;;28.10;56.30;;;;;;6248953;28;20238;-67
2022/09/26 10:53:44;;;;;;;5.97;5.57;;;26.60;59.00;;;;;;6249265;28;20294;-67
2022/09/26 10:56:53;;;;;;;5.90;5.50;;;26.50;61.20;;;;;;6248937;28;20298;-68
2022/09/26 10:59:59;;;;;;;5.03;4.63;;;29.20;56.80;;;;;;6249474;28;20250;-67
2022/09/26 11:03:03;;;;;;;6.33;5.10;;;30.00;51.80;;;;;;6248739;28;20289;-67
2022/09/26 11:06:22;;;;;;;6.37;5.77;;;30.40;51.00;;;;;;6249208;28;20239;-67
2022/09/26 11:09:27;;;;;;;5.10;3.70;;;30.60;50.60;;;;;;6249293;28;20228;-67
2022/09/26 11:12:38;;;;;;;5.45;4.53;;;30.30;50.70;;;;;;6248670;28;20235;-68
2022/09/26 11:15:53;;;;;;;5.87;5.43;;;31.00;49.50;;;;;;6249282;28;20529;-67
2022/09/26 11:19:03;;;;;;;7.60;5.17;;;29.30;50.70;;;;;;6243230;28;20235;-67
2022/09/26 11:22:14;;;;;;;5.27;4.87;;;28.00;53.20;;;;;;6248988;28;20592;-67
2022/09/26 11:25:25;;;;;;;6.57;5.97;;;26.60;55.60;;;;;;6246156;28;20541;-67
2022/09/26 11:32:50;;;;;;;5.37;4.97;;;24.10;62.70;;;;;;6644901;23;20232;-64
2022/09/26 11:36:09;;;;;;;6.50;5.90;;;22.70;67.00;;;;;;6270775;28;20723;-65
2022/09/26 11:39:26;;;;;;;4.57;4.13;;;22.50;71.20;;;;;;6270458;28;20236;-65
2022/09/26 11:42:41;;;;;;;4.60;4.20;;;22.70;72.00;;;;;;6271393;28;20247;-66
2022/09/26 11:46:02;;;;;;;5.70;4.30;;;22.80;71.30;;;;;;6271566;28;20331;-66
2022/09/26 11:49:42;;;;;;;4.10;3.70;;;22.80;70.60;;;;;;6283417;28;20603;-67
2022/09/26 11:52:57;;;;;;;4.03;3.63;;;22.50;71.30;;;;;;6325522;28;20245;-67
2022/09/26 11:56:43;;;;;;;5.17;4.67;;;22.80;71.20;;;;;;6325146;28;20262;-67
2022/09/26 12:00:05;;;;;;;5.60;5.10;;;23.10;72.20;;;;;;6289082;28;20571;-67
2022/09/26 12:04:04;;;;;;;3.70;3.50;;;23.40;70.50;;;;;;6326590;28;20226;-68
2022/09/26 12:07:17;;;;;;;3.90;3.60;;;23.80;70.30;;;;;;6225766;28;20245;-66
2022/09/26 12:10:35;;;;;;;3.07;2.80;;;23.60;67.00;;;;;;6327753;28;20245;-66
2022/09/26 12:13:51;;;;;;;3.77;3.37;;;23.90;68.30;;;;;;6327364;28;20245;-66
2022/09/26 12:17:00;;;;;;;4.13;3.73;;;24.40;64.40;;;;;;6323887;28;20233;-67
2022/09/26 12:20:26;;;;;;;6.00;5.00;;;24.10;65.30;;;;;;6319526;28;20296;-67
2022/09/26 12:23:36;;;;;;;6.03;4.20;;;23.60;65.80;;;;;;6334131;28;20234;-66
2022/09/26 12:26:45;;;;;;;5.67;4.50;;;25.00;67.40;;;;;;6327072;28;20701;-67
2022/09/26 12:29:58;;;;;;;4.87;4.40;;;29.00;58.70;;;;;;6327487;28;20233;-67
2022/09/26 12:33:21;;;;;;;4.80;4.40;;;32.80;49.00;;;;;;6324235;28;20241;-67
2022/09/26 12:36:39;;;;;;;5.67;5.17;;;32.30;46.30;;;;;;6305064;28;20226;-68
2022/09/26 12:40:08;;;;;;;5.50;4.80;;;30.50;48.70;;;;;;6278434;28;20235;-68
2022/09/26 12:43:27;;;;;;;4.90;4.50;;;29.00;51.10;;;;;;6275938;28;20222;-68
2022/09/26 12:46:53;;;;;;;4.00;3.70;;;27.70;51.80;;;;;;6275946;28;20234;-67
2022/09/26 12:50:29;;;;;;;5.73;4.47;;;28.00;53.10;;;;;;6296356;28;20236;-68
2022/09/26 12:53:46;;;;;;;5.00;3.70;;;30.80;48.40;;;;;;6315264;28;20249;-66
2022/09/26 12:56:54;;;;;;;4.17;3.77;;;30.40;47.40;;;;;;6326573;28;20695;-68
2022/09/26 13:00:10;;;;;;;3.80;3.50;;;29.30;48.70;;;;;;6327045;28;20226;-67
2022/09/26 13:03:35;;;;;;;5.43;4.90;;;27.70;50.70;;;;;;6308896;28;20553;-68
2022/09/26 13:07:13;;;;;;;4.20;2.80;;;26.50;54.00;;;;;;6300998;28;20285;-67
2022/09/26 13:10:30;;;;;;;4.73;2.67;;;27.40;53.50;;;;;;6300951;28;20233;-66
2022/09/26 13:14:06;;;;;;;3.05;2.33;;;32.00;46.80;;;;;;6301123;28;20257;-66
2022/09/26 13:17:15;;;;;;;2.90;2.45;;;36.00;39.70;;;;;;6300942;28;20230;-67
2022/09/26 13:20:26;;;;;;;2.72;2.53;;;36.10;36.10;;;;;;6300719;28;20289;-68
2022/09/26 13:23:35;;;;;;;2.35;2.15;;;32.30;39.10;;;;;;6300634;28;20561;-67
2022/09/26 13:26:42;;;;;;;3.50;2.20;;;30.00;42.90;;;;;;6300847;28;20237;-68
2022/09/26 13:29:52;;;;;;;2.70;2.50;;;28.50;45.30;;;;;;6299260;28;20238;-68
2022/09/26 13:33:04;;;;;;;2.77;2.43;;;26.90;47.70;;;;;;6275071;28;20239;-67
2022/09/26 13:36:09;;;;;;;4.50;2.60;;;25.70;49.90;;;;;;6276163;28;20679;-68
2022/09/26 13:39:24;;;;;;;3.53;3.23;;;24.40;53.10;;;;;;6275506;28;20228;-68
2022/09/26 13:42:37;;;;;;;4.37;3.97;;;23.80;55.90;;;;;;6278177;28;20228;-67
2022/09/26 13:45:57;;;;;;;3.80;2.93;;;23.30;57.20;;;;;;6278384;28;20659;-67
2022/09/26 13:49:07;;;;;;;2.90;2.50;;;22.80;58.90;;;;;;6279052;28;20215;-67
2022/09/26 13:52:29;;;;;;;4.20;3.10;;;22.20;60.30;;;;;;6300130;28;20235;-66
2022/09/26 13:55:35;;;;;;;3.23;3.00;;;21.90;61.70;;;;;;6300251;28;20223;-66
2022/09/26 13:58:39;;;;;;;4.33;2.80;;;21.50;63.40;;;;;;6297686;28;20220;-65
2022/09/26 14:02:31;;;;;;;7.87;3.73;;;21.00;65.50;;;;;;6293497;28;20702;-66
2022/09/26 14:05:49;;;;;;;3.23;3.03;;;20.70;68.80;;;;;;6242188;28;20702;-66
2022/09/26 14:09:22;;;;;;;4.10;3.70;;;20.50;70.00;;;;;;6278960;28;20242;-66
2022/09/26 14:12:51;;;;;;;3.20;3.00;;;20.20;71.90;;;;;;6280404;28;20231;-66
2022/09/26 14:16:05;;;;;;;4.70;3.07;;;20.00;73.70;;;;;;6274549;28;20564;-66
2022/09/26 14:19:10;;;;;;;3.63;3.33;;;19.90;76.60;;;;;;6309661;28;20281;-66
2022/09/26 14:22:33;;;;;;;4.43;3.60;;;19.80;79.10;;;;;;6310508;28;20218;-66
2022/09/26 14:26:02;;;;;;;4.17;3.77;;;19.70;82.10;;;;;;6312574;28;20218;-66
2022/09/26 14:29:30;;;;;;;5.40;4.20;;;19.50;84.80;;;;;;6310026;28;20241;-66
2022/09/26 14:32:38;;;;;;;4.83;3.00;;;19.40;89.70;;;;;;6324198;28;20247;-65
2022/09/26 14:35:42;;;;;;;3.70;2.77;;;19.40;90.80;;;;;;6316785;28;20222;-65
2022/09/26 14:38:47;;;;;;;3.33;2.43;;;19.30;91.60;;;;;;6313236;28;20268;-66
2022/09/26 14:41:50;;;;;;;3.80;2.50;;;19.20;92.50;;;;;;6323518;28;20592;-66
2022/09/26 14:45:00;;;;;;;2.27;2.07;;;19.00;93.20;;;;;;6324367;28;20222;-66
2022/09/26 14:48:12;;;;;;;2.70;1.90;;;18.80;92.90;;;;;;6324219;28;20219;-66
2022/09/26 14:51:28;;;;;;;2.10;1.87;;;18.70;94.20;;;;;;6322451;28;20230;-66
2022/09/26 14:54:38;;;;;;;3.23;2.10;;;18.70;95.60;;;;;;6322828;28;20218;-66
2022/09/26 14:57:41;;;;;;;4.13;2.23;;;18.50;96.20;;;;;;6322199;28;20226;-66
2022/09/26 15:00:49;;;;;;;4.10;3.80;;;18.30;97.10;;;;;;6322608;28;20214;-65
2022/09/26 15:04:00;;;;;;;3.87;3.53;;;17.80;99.90;;;;;;6323757;28;20474;-66
2022/09/26 15:07:05;;;;;;;3.93;3.53;;;17.10;99.90;;;;;;6322264;28;20222;-65
2022/09/26 15:10:22;;;;;;;4.43;3.27;;;16.90;99.90;;;;;;6324734;28;20448;-66
2022/09/26 15:13:31;;;;;;;3.70;3.40;;;16.70;99.90;;;;;;6324509;28;20464;-66
2022/09/26 15:16:40;;;;;;;6.03;4.47;;;16.40;99.90;;;;;;6323940;28;20472;-63
2022/09/26 15:19:49;;;;;;;4.90;4.40;;;16.30;99.90;;;;;;6317602;28;20472;-64
2022/09/26 15:22:56;;;;;;;4.70;4.30;;;16.40;99.90;;;;;;6323630;28;20483;-64
2022/09/26 15:26:02;;;;;;;5.63;5.13;;;16.40;99.90;;;;;;6328797;28;20471;-65
2022/09/26 15:29:07;;;;;;;5.17;4.77;;;16.50;99.90;;;;;;6329075;28;20464;-63
2022/09/26 15:32:15;;;;;;;6.00;5.33;;;16.60;99.90;;;;;;6325102;28;20483;-63
2022/09/26 15:35:19;;;;;;;4.57;4.17;;;16.70;99.90;;;;;;6330365;28;20558;-64
2022/09/26 15:38:23;;;;;;;5.40;5.00;;;16.90;99.90;;;;;;6329288;28;20475;-63
2022/09/26 15:44:53;;;;;;;4.53;4.13;;;17.10;99.90;;;;;;6346602;28;21173;-66
2022/09/26 15:48:00;;;;;;;4.87;4.37;;;17.20;99.90;;;;;;6354449;28;20472;-65
2022/09/26 15:51:08;;;;;;;5.10;4.60;;;17.20;99.90;;;;;;6344477;28;20467;-65
2022/09/26 15:54:15;;;;;;;5.00;4.57;;;17.20;99.90;;;;;;6353950;28;20483;-66
2022/09/26 15:57:25;;;;;;;5.33;4.93;;;17.20;99.90;;;;;;6355085;28;20467;-66
2022/09/26 16:00:32;;;;;;;5.90;5.37;;;17.20;99.90;;;;;;6354862;28;20467;-67
2022/09/26 16:03:44;;;;;;;5.80;5.30;;;17.20;99.90;;;;;;6328516;28;20472;-67
2022/09/26 16:06:55;;;;;;;6.17;5.67;;;17.20;99.90;;;;;;6328544;28;20464;-66
2022/09/26 16:09:59;;;;;;;5.03;4.63;;;17.10;99.90;;;;;;6331526;28;20452;-65
2022/09/26 16:13:02;;;;;;;15.60;12.70;;;17.20;99.90;;;;;;6353411;28;20475;-65
2022/09/26 16:16:08;;;;;;;9.17;8.30;;;17.10;99.90;;;;;;6353030;28;20476;-65
2022/09/26 16:19:32;;;;;;;6.73;6.20;;;17.10;99.90;;;;;;6331543;28;20510;-66
2022/09/26 16:22:44;;;;;;;8.00;6.90;;;17.00;99.90;;;;;;6327314;28;20473;-66
2022/09/26 16:25:55;;;;;;;10.30;7.93;;;17.00;99.90;;;;;;6327306;28;20543;-66
2022/09/26 16:28:59;;;;;;;8.90;8.20;;;16.90;99.90;;;;;;6326871;28;20476;-66
2022/09/26 16:32:03;;;;;;;7.13;6.53;;;16.90;99.90;;;;;;6327160;28;20486;-65
2022/09/26 16:35:18;;;;;;;9.10;7.00;;;16.90;99.90;;;;;;6326178;28;20472;-65
2022/09/26 16:38:26;;;;;;;7.87;7.07;;;16.80;99.90;;;;;;6327029;28;20779;-65